sensor_id;sensor_type;location;lat;lon;timestamp;pressure;altitude;pressure_sealevel;temperature;humidity
51986;BME280;38002;53.296;6.600;2023-02-11T00:03:51;103350.63;;;5.57;88.55
51986;BME280;38002;53.296;6.600;2023-02-11T00:08:51;103341.41;;;5.63;88.12
51986;BME280;38002;53.296;6.600;2023-02-11T00:13:51;103338.53;;;5.66;87.79
51986;BME280;38002;53.296;6.600;2023-02-11T00:18:52;103340.31;;;5.67;88.53
51986;BME280;38002;53.296;6.600;2023-02-11T00:23:53;103350.09;;;5.69;88.02
51986;BME280;38002;53.296;6.600;2023-02-11T00:28:56;103350.00;;;5.71;88.10
51986;BME280;38002;53.296;6.600;2023-02-11T00:33:56;103344.63;;;5.71;88.36
51986;BME280;38002;53.296;6.600;2023-02-11T00:38:58;103332.72;;;5.75;88.15
51986;BME280;38002;53.296;6.600;2023-02-11T00:43:59;103336.25;;;5.77;88.87
51986;BME280;38002;53.296;6.600;2023-02-11T00:49:00;103337.91;;;5.79;88.32
51986;BME280;38002;53.296;6.600;2023-02-11T00:54:00;103331.44;;;5.83;88.14
51986;BME280;38002;53.296;6.600;2023-02-11T00:59:01;103339.47;;;5.85;88.34
51986;BME280;38002;53.296;6.600;2023-02-11T01:04:01;103344.84;;;5.86;88.58
51986;BME280;38002;53.296;6.600;2023-02-11T01:09:02;103351.91;;;5.89;88.24
51986;BME280;38002;53.296;6.600;2023-02-11T01:14:02;103342.88;;;5.90;88.64
51986;BME280;38002;53.296;6.600;2023-02-11T01:19:03;103344.63;;;5.91;88.63
51986;BME280;38002;53.296;6.600;2023-02-11T01:24:03;103335.72;;;5.89;88.63
51986;BME280;38002;53.296;6.600;2023-02-11T01:29:04;103338.41;;;5.89;89.40
51986;BME280;38002;53.296;6.600;2023-02-11T01:34:04;103339.34;;;5.88;88.97
51986;BME280;38002;53.296;6.600;2023-02-11T01:39:05;103330.31;;;5.89;89.22
51986;BME280;38002;53.296;6.600;2023-02-11T01:44:40;103331.25;;;5.88;89.53
51986;BME280;38002;53.296;6.600;2023-02-11T01:49:48;103336.59;;;5.89;89.11
51986;BME280;38002;53.296;6.600;2023-02-11T01:54:52;103315.88;;;5.90;88.95
51986;BME280;38002;53.296;6.600;2023-02-11T02:00:15;103323.97;;;5.90;89.19
51986;BME280;38002;53.296;6.600;2023-02-11T02:10:27;103328.34;;;5.92;89.08
51986;BME280;38002;53.296;6.600;2023-02-11T02:15:36;103307.63;;;5.93;89.41
51986;BME280;38002;53.296;6.600;2023-02-11T02:26:01;103301.34;;;5.92;89.28
51986;BME280;38002;53.296;6.600;2023-02-11T02:31:15;103286.94;;;5.92;89.59
51986;BME280;38002;53.296;6.600;2023-02-11T02:36:36;103292.22;;;5.95;89.69
51986;BME280;38002;53.296;6.600;2023-02-11T02:41:40;103290.38;;;5.96;89.36
51986;BME280;38002;53.296;6.600;2023-02-11T02:46:42;103269.75;;;5.95;89.56
51986;BME280;38002;53.296;6.600;2023-02-11T02:52:06;103270.75;;;5.92;89.65
51986;BME280;38002;53.296;6.600;2023-02-11T03:08:05;103254.56;;;5.92;89.77
51986;BME280;38002;53.296;6.600;2023-02-11T03:13:08;103249.16;;;5.92;89.95
51986;BME280;38002;53.296;6.600;2023-02-11T03:18:12;103256.31;;;5.93;90.13
51986;BME280;38002;53.296;6.600;2023-02-11T03:23:18;103255.28;;;5.96;90.32
51986;BME280;38002;53.296;6.600;2023-02-11T03:33:41;103248.56;;;6.04;90.47
51986;BME280;38002;53.296;6.600;2023-02-11T03:38:48;103254.78;;;6.06;90.46
51986;BME280;38002;53.296;6.600;2023-02-11T03:43:56;103251.03;;;6.09;90.03
51986;BME280;38002;53.296;6.600;2023-02-11T03:49:08;103252.72;;;6.11;90.45
51986;BME280;38002;53.296;6.600;2023-02-11T03:54:15;103267.91;;;6.14;90.57
51986;BME280;38002;53.296;6.600;2023-02-11T03:59:18;103254.31;;;6.15;90.72
51986;BME280;38002;53.296;6.600;2023-02-11T04:04:18;103252.41;;;6.17;90.57
51986;BME280;38002;53.296;6.600;2023-02-11T04:09:19;103254.97;;;6.20;90.53
51986;BME280;38002;53.296;6.600;2023-02-11T04:14:19;103263.81;;;6.24;91.38
51986;BME280;38002;53.296;6.600;2023-02-11T04:19:20;103255.47;;;6.28;90.76
51986;BME280;38002;53.296;6.600;2023-02-11T04:24:20;103253.50;;;6.32;90.95
51986;BME280;38002;53.296;6.600;2023-02-11T04:29:21;103251.50;;;6.35;90.96
51986;BME280;38002;53.296;6.600;2023-02-11T04:34:22;103260.44;;;6.37;90.75
51986;BME280;38002;53.296;6.600;2023-02-11T04:39:23;103252.16;;;6.41;91.04
51986;BME280;38002;53.296;6.600;2023-02-11T04:44:24;103268.06;;;6.47;91.21
51986;BME280;38002;53.296;6.600;2023-02-11T04:49:24;103266.00;;;6.52;91.00
51986;BME280;38002;53.296;6.600;2023-02-11T04:54:24;103249.66;;;6.55;91.51
51986;BME280;38002;53.296;6.600;2023-02-11T04:59:25;103253.00;;;6.60;91.39
51986;BME280;38002;53.296;6.600;2023-02-11T05:04:26;103260.00;;;6.64;91.24
51986;BME280;38002;53.296;6.600;2023-02-11T05:09:26;103266.00;;;6.69;91.30
51986;BME280;38002;53.296;6.600;2023-02-11T05:14:27;103267.63;;;6.73;91.28
51986;BME280;38002;53.296;6.600;2023-02-11T05:19:27;103272.00;;;6.75;91.48
51986;BME280;38002;53.296;6.600;2023-02-11T05:24:28;103257.44;;;6.78;91.14
51986;BME280;38002;53.296;6.600;2023-02-11T05:29:28;103257.31;;;6.81;91.17
51986;BME280;38002;53.296;6.600;2023-02-11T05:34:29;103250.91;;;6.82;90.94
51986;BME280;38002;53.296;6.600;2023-02-11T05:39:29;103267.31;;;6.79;91.50
51986;BME280;38002;53.296;6.600;2023-02-11T05:44:30;103270.94;;;6.78;91.62
51986;BME280;38002;53.296;6.600;2023-02-11T05:49:30;103266.59;;;6.75;91.41
51986;BME280;38002;53.296;6.600;2023-02-11T05:54:31;103268.41;;;6.75;91.00
51986;BME280;38002;53.296;6.600;2023-02-11T05:59:31;103258.53;;;6.74;91.23
51986;BME280;38002;53.296;6.600;2023-02-11T06:04:32;103263.06;;;6.73;91.24
51986;BME280;38002;53.296;6.600;2023-02-11T06:09:32;103266.66;;;6.74;91.73
51986;BME280;38002;53.296;6.600;2023-02-11T06:14:33;103263.94;;;6.74;91.19
51986;BME280;38002;53.296;6.600;2023-02-11T06:19:33;103264.75;;;6.76;91.51
51986;BME280;38002;53.296;6.600;2023-02-11T06:24:34;103257.44;;;6.78;91.50
51986;BME280;38002;53.296;6.600;2023-02-11T06:29:34;103257.31;;;6.81;91.74
51986;BME280;38002;53.296;6.600;2023-02-11T06:34:35;103258.06;;;6.83;91.75
51986;BME280;38002;53.296;6.600;2023-02-11T06:39:35;103267.00;;;6.85;91.08
51986;BME280;38002;53.296;6.600;2023-02-11T06:44:36;103266.91;;;6.87;91.17
51986;BME280;38002;53.296;6.600;2023-02-11T06:49:36;103271.34;;;6.88;91.40
51986;BME280;38002;53.296;6.600;2023-02-11T06:54:37;103276.53;;;6.92;91.83
51986;BME280;38002;53.296;6.600;2023-02-11T06:59:37;103273.75;;;6.94;91.38
51986;BME280;38002;53.296;6.600;2023-02-11T07:04:38;103274.53;;;6.96;91.29
51986;BME280;38002;53.296;6.600;2023-02-11T07:09:38;103283.53;;;6.96;91.06
51986;BME280;38002;53.296;6.600;2023-02-11T07:14:39;103287.06;;;6.98;91.25
51986;BME280;38002;53.296;6.600;2023-02-11T07:19:39;103296.81;;;7.01;91.92
51986;BME280;38002;53.296;6.600;2023-02-11T07:24:40;103298.59;;;7.02;91.73
51986;BME280;38002;53.296;6.600;2023-02-11T07:29:41;103298.47;;;7.03;91.32
51986;BME280;38002;53.296;6.600;2023-02-11T07:34:41;103283.06;;;7.05;91.43
51986;BME280;38002;53.296;6.600;2023-02-11T07:39:42;103279.41;;;7.06;91.88
51986;BME280;38002;53.296;6.600;2023-02-11T07:44:42;103289.28;;;7.07;91.95
51986;BME280;38002;53.296;6.600;2023-02-11T07:49:42;103288.28;;;7.08;91.51
51986;BME280;38002;53.296;6.600;2023-02-11T07:54:43;103294.53;;;7.10;91.67
51986;BME280;38002;53.296;6.600;2023-02-11T07:59:43;103297.94;;;7.14;91.59
51986;BME280;38002;53.296;6.600;2023-02-11T08:04:47;103315.81;;;7.16;91.90
51986;BME280;38002;53.296;6.600;2023-02-11T08:09:47;103324.69;;;7.20;91.22
51986;BME280;38002;53.296;6.600;2023-02-11T08:14:48;103320.84;;;7.24;91.59
51986;BME280;38002;53.296;6.600;2023-02-11T08:19:48;103337.75;;;7.29;91.52
51986;BME280;38002;53.296;6.600;2023-02-11T08:24:49;103341.94;;;7.35;91.02
51986;BME280;38002;53.296;6.600;2023-02-11T08:29:49;103339.94;;;7.38;91.56
51986;BME280;38002;53.296;6.600;2023-02-11T08:34:51;103345.97;;;7.43;91.74
51986;BME280;38002;53.296;6.600;2023-02-11T08:39:51;103353.78;;;7.49;91.34
51986;BME280;38002;53.296;6.600;2023-02-11T08:44:52;103354.44;;;7.54;90.64
51986;BME280;38002;53.296;6.600;2023-02-11T08:49:52;103380.53;;;7.55;91.29
51986;BME280;38002;53.296;6.600;2023-02-11T08:54:53;103381.16;;;7.60;91.77
51986;BME280;38002;53.296;6.600;2023-02-11T08:59:53;103380.13;;;7.63;91.93
51986;BME280;38002;53.296;6.600;2023-02-11T09:04:54;103379.09;;;7.65;91.25
51986;BME280;38002;53.296;6.600;2023-02-11T09:09:54;103386.16;;;7.68;91.27
51986;BME280;38002;53.296;6.600;2023-02-11T09:14:55;103400.25;;;7.74;91.38
51986;BME280;38002;53.296;6.600;2023-02-11T09:19:55;103412.50;;;7.82;91.16
51986;BME280;38002;53.296;6.600;2023-02-11T09:24:56;103424.56;;;7.93;91.18
51986;BME280;38002;53.296;6.600;2023-02-11T09:29:56;103410.50;;;8.02;91.49
51986;BME280;38002;53.296;6.600;2023-02-11T09:34:56;103428.81;;;8.14;90.93
51986;BME280;38002;53.296;6.600;2023-02-11T09:39:57;103418.31;;;8.24;91.73
51986;BME280;38002;53.296;6.600;2023-02-11T09:44:58;103431.50;;;8.32;90.45
51986;BME280;38002;53.296;6.600;2023-02-11T09:50:13;103445.50;;;8.40;90.65
51986;BME280;38002;53.296;6.600;2023-02-11T09:55:22;103451.38;;;8.48;91.25
51986;BME280;38002;53.296;6.600;2023-02-11T10:00:36;103455.34;;;8.58;90.61
51986;BME280;38002;53.296;6.600;2023-02-11T10:11:01;103474.25;;;8.75;90.50
51986;BME280;38002;53.296;6.600;2023-02-11T10:21:42;103476.97;;;8.91;90.77
51986;BME280;38002;53.296;6.600;2023-02-11T10:26:45;103489.94;;;9.01;89.88
51986;BME280;38002;53.296;6.600;2023-02-11T10:31:47;103492.97;;;9.11;90.23
51986;BME280;38002;53.296;6.600;2023-02-11T10:36:48;103506.97;;;9.19;89.37
51986;BME280;38002;53.296;6.600;2023-02-11T10:41:53;103498.56;;;9.24;89.79
51986;BME280;38002;53.296;6.600;2023-02-11T10:46:55;103501.34;;;9.38;89.61
51986;BME280;38002;53.296;6.600;2023-02-11T10:52:10;103502.38;;;9.51;88.30
51986;BME280;38002;53.296;6.600;2023-02-11T10:57:17;103513.47;;;9.62;88.99
51986;BME280;38002;53.296;6.600;2023-02-11T11:02:20;103513.13;;;9.68;88.84
51986;BME280;38002;53.296;6.600;2023-02-11T11:07:27;103520.41;;;9.68;88.50
51986;BME280;38002;53.296;6.600;2023-02-11T11:12:36;103522.22;;;9.67;88.59
51986;BME280;38002;53.296;6.600;2023-02-11T11:17:39;103516.81;;;9.67;87.53
51986;BME280;38002;53.296;6.600;2023-02-11T11:22:41;103527.13;;;9.76;88.34
51986;BME280;38002;53.296;6.600;2023-02-11T11:27:48;103530.25;;;9.84;87.54
51986;BME280;38002;53.296;6.600;2023-02-11T11:32:48;103537.38;;;9.87;87.89
51986;BME280;38002;53.296;6.600;2023-02-11T11:38:02;103532.63;;;9.90;87.19
51986;BME280;38002;53.296;6.600;2023-02-11T11:58:31;103533.34;;;10.08;87.16
51986;BME280;38002;53.296;6.600;2023-02-11T12:09:08;103528.25;;;10.02;87.09
51986;BME280;38002;53.296;6.600;2023-02-11T12:35:35;103524.50;;;10.05;87.41
51986;BME280;38002;53.296;6.600;2023-02-11T12:40:45;103525.28;;;10.07;87.45
51986;BME280;38002;53.296;6.600;2023-02-11T12:56:28;103539.94;;;10.04;86.97
51986;BME280;38002;53.296;6.600;2023-02-11T13:01:35;103544.84;;;9.97;87.22
51986;BME280;38002;53.296;6.600;2023-02-11T13:06:44;103557.94;;;9.91;87.10
51986;BME280;38002;53.296;6.600;2023-02-11T13:11:49;103563.84;;;9.83;87.07
51986;BME280;38002;53.296;6.600;2023-02-11T13:16:54;103567.88;;;9.76;87.44
51986;BME280;38002;53.296;6.600;2023-02-11T13:22:11;103563.41;;;9.75;87.29
51986;BME280;38002;53.296;6.600;2023-02-11T13:43:23;103554.69;;;9.70;87.49
51986;BME280;38002;53.296;6.600;2023-02-11T13:48:30;103554.56;;;9.72;87.59
51986;BME280;38002;53.296;6.600;2023-02-11T13:58:49;103560.25;;;9.67;86.69
51986;BME280;38002;53.296;6.600;2023-02-11T14:04:20;103573.25;;;9.62;86.30
51986;BME280;38002;53.296;6.600;2023-02-11T14:09:39;103581.84;;;9.54;86.78
51986;BME280;38002;53.296;6.600;2023-02-11T14:15:00;103582.22;;;9.48;87.03
51986;BME280;38002;53.296;6.600;2023-02-11T14:20:03;103574.34;;;9.44;86.92
51986;BME280;38002;53.296;6.600;2023-02-11T14:25:24;103577.19;;;9.41;87.38
51986;BME280;38002;53.296;6.600;2023-02-11T14:40:50;103586.88;;;9.31;87.67
51986;BME280;38002;53.296;6.600;2023-02-11T14:45:55;103590.53;;;9.30;87.66
51986;BME280;38002;53.296;6.600;2023-02-11T14:51:01;103580.47;;;9.32;87.68
51986;BME280;38002;53.296;6.600;2023-02-11T14:56:02;103584.03;;;9.32;87.55
51986;BME280;38002;53.296;6.600;2023-02-11T15:06:33;103586.75;;;9.32;87.33
51986;BME280;38002;53.296;6.600;2023-02-11T15:11:40;103604.09;;;9.30;87.08
51986;BME280;38002;53.296;6.600;2023-02-11T15:16:43;103604.38;;;9.25;87.13
51986;BME280;38002;53.296;6.600;2023-02-11T15:21:45;103612.78;;;9.21;86.87
51986;BME280;38002;53.296;6.600;2023-02-11T15:27:10;103621.16;;;9.16;87.07
51986;BME280;38002;53.296;6.600;2023-02-11T15:32:24;103616.94;;;9.10;87.05
51986;BME280;38002;53.296;6.600;2023-02-11T15:37:27;103611.88;;;9.04;87.10
51986;BME280;38002;53.296;6.600;2023-02-11T15:42:31;103605.75;;;9.01;87.31
51986;BME280;38002;53.296;6.600;2023-02-11T15:47:31;103607.91;;;8.94;87.34
51986;BME280;38002;53.296;6.600;2023-02-11T15:52:32;103604.56;;;8.89;87.68
51986;BME280;38002;53.296;6.600;2023-02-11T15:57:33;103611.13;;;8.85;88.27
51986;BME280;38002;53.296;6.600;2023-02-11T16:02:34;103618.47;;;8.83;87.84
51986;BME280;38002;53.296;6.600;2023-02-11T16:07:47;103630.34;;;8.81;87.87
51986;BME280;38002;53.296;6.600;2023-02-11T16:13:14;103623.53;;;8.74;87.95
51986;BME280;38002;53.296;6.600;2023-02-11T16:23:34;103636.69;;;8.64;87.28
51986;BME280;38002;53.296;6.600;2023-02-11T16:28:37;103635.22;;;8.58;87.73
51986;BME280;38002;53.296;6.600;2023-02-11T16:33:38;103638.06;;;8.55;88.25
51986;BME280;38002;53.296;6.600;2023-02-11T16:38:39;103649.09;;;8.52;88.28
51986;BME280;38002;53.296;6.600;2023-02-11T16:43:39;103648.38;;;8.49;87.38
51986;BME280;38002;53.296;6.600;2023-02-11T16:48:40;103671.00;;;8.48;88.03
51986;BME280;38002;53.296;6.600;2023-02-11T16:53:40;103672.91;;;8.46;88.41
51986;BME280;38002;53.296;6.600;2023-02-11T16:58:41;103682.91;;;8.45;88.01
51986;BME280;38002;53.296;6.600;2023-02-11T17:03:42;103687.53;;;8.43;88.50
51986;BME280;38002;53.296;6.600;2023-02-11T17:08:42;103693.00;;;8.42;87.74
51986;BME280;38002;53.296;6.600;2023-02-11T17:13:43;103703.97;;;8.40;88.58
51986;BME280;38002;53.296;6.600;2023-02-11T17:18:44;103708.66;;;8.37;88.54
51986;BME280;38002;53.296;6.600;2023-02-11T17:23:45;103718.69;;;8.35;88.19
51986;BME280;38002;53.296;6.600;2023-02-11T17:28:45;103716.94;;;8.34;88.67
51986;BME280;38002;53.296;6.600;2023-02-11T17:33:47;103721.56;;;8.32;88.52
51986;BME280;38002;53.296;6.600;2023-02-11T17:38:47;103718.94;;;8.30;88.40
51986;BME280;38002;53.296;6.600;2023-02-11T17:43:48;103729.81;;;8.29;88.75
51986;BME280;38002;53.296;6.600;2023-02-11T17:48:48;103732.59;;;8.27;89.04
51986;BME280;38002;53.296;6.600;2023-02-11T17:53:50;103720.41;;;8.18;88.43
51986;BME280;38002;53.296;6.600;2023-02-11T17:58:51;103739.22;;;8.21;89.04
51986;BME280;38002;53.296;6.600;2023-02-11T18:03:52;103743.03;;;8.17;88.62
51986;BME280;38002;53.296;6.600;2023-02-11T18:08:52;103761.19;;;8.15;88.85
51986;BME280;38002;53.296;6.600;2023-02-11T18:13:53;103767.66;;;8.13;88.88
51986;BME280;38002;53.296;6.600;2023-02-11T18:18:55;103767.81;;;8.10;88.52
51986;BME280;38002;53.296;6.600;2023-02-11T18:23:56;103772.50;;;8.06;88.43
51986;BME280;38002;53.296;6.600;2023-02-11T18:28:57;103764.50;;;8.03;88.74
51986;BME280;38002;53.296;6.600;2023-02-11T18:34:00;103773.72;;;7.99;89.35
51986;BME280;38002;53.296;6.600;2023-02-11T18:39:01;103766.81;;;7.94;89.29
51986;BME280;38002;53.296;6.600;2023-02-11T18:44:02;103777.03;;;7.87;88.78
51986;BME280;38002;53.296;6.600;2023-02-11T18:49:04;103764.88;;;7.77;89.35
51986;BME280;38002;53.296;6.600;2023-02-11T18:54:04;103772.56;;;7.67;88.44
51986;BME280;38002;53.296;6.600;2023-02-11T18:59:05;103776.66;;;7.57;89.28
51986;BME280;38002;53.296;6.600;2023-02-11T19:04:05;103779.78;;;7.48;89.00
51986;BME280;38002;53.296;6.600;2023-02-11T19:09:15;103786.56;;;7.38;89.43
51986;BME280;38002;53.296;6.600;2023-02-11T19:14:21;103804.91;;;7.32;89.50
51986;BME280;38002;53.296;6.600;2023-02-11T19:19:24;103808.88;;;7.24;89.08
51986;BME280;38002;53.296;6.600;2023-02-11T19:24:26;103806.34;;;7.20;89.43
51986;BME280;38002;53.296;6.600;2023-02-11T19:29:27;103802.81;;;7.18;89.37
51986;BME280;38002;53.296;6.600;2023-02-11T19:34:28;103803.97;;;7.12;89.99
51986;BME280;38002;53.296;6.600;2023-02-11T19:39:28;103807.03;;;7.05;89.44
51986;BME280;38002;53.296;6.600;2023-02-11T19:44:29;103812.78;;;6.97;89.73
51986;BME280;38002;53.296;6.600;2023-02-11T19:49:29;103813.31;;;6.85;89.17
51986;BME280;38002;53.296;6.600;2023-02-11T19:54:30;103824.50;;;6.76;89.96
51986;BME280;38002;53.296;6.600;2023-02-11T19:59:30;103832.06;;;6.68;89.48
51986;BME280;38002;53.296;6.600;2023-02-11T20:04:31;103836.09;;;6.58;89.09
51986;BME280;38002;53.296;6.600;2023-02-11T20:09:32;103851.69;;;6.51;89.28
51986;BME280;38002;53.296;6.600;2023-02-11T20:14:32;103857.47;;;6.42;89.91
51986;BME280;38002;53.296;6.600;2023-02-11T20:19:33;103857.66;;;6.37;89.73
51986;BME280;38002;53.296;6.600;2023-02-11T20:24:34;103858.78;;;6.32;89.88
51986;BME280;38002;53.296;6.600;2023-02-11T20:29:34;103863.56;;;6.25;89.92
51986;BME280;38002;53.296;6.600;2023-02-11T20:34:35;103862.38;;;6.09;89.37
51986;BME280;38002;53.296;6.600;2023-02-11T20:39:35;103870.03;;;5.98;89.76
51986;BME280;38002;53.296;6.600;2023-02-11T20:44:40;103884.81;;;5.88;90.12
51986;BME280;38002;53.296;6.600;2023-02-11T20:49:40;103887.22;;;5.71;89.69
51986;BME280;38002;53.296;6.600;2023-02-11T20:54:41;103886.25;;;5.48;90.34
51986;BME280;38002;53.296;6.600;2023-02-11T20:59:41;103909.72;;;5.46;90.59
51986;BME280;38002;53.296;6.600;2023-02-11T21:04:42;103898.31;;;5.38;90.48
51986;BME280;38002;53.296;6.600;2023-02-11T21:09:42;103896.56;;;5.37;90.98
51986;BME280;38002;53.296;6.600;2023-02-11T21:14:43;103889.38;;;5.36;91.04
51986;BME280;38002;53.296;6.600;2023-02-11T21:19:43;103903.09;;;5.30;90.96
51986;BME280;38002;53.296;6.600;2023-02-11T21:24:44;103908.84;;;5.20;91.31
51986;BME280;38002;53.296;6.600;2023-02-11T21:29:44;103913.59;;;5.13;90.84
51986;BME280;38002;53.296;6.600;2023-02-11T21:34:44;103924.47;;;5.10;91.65
51986;BME280;38002;53.296;6.600;2023-02-11T21:39:45;103932.69;;;5.07;92.29
51986;BME280;38002;53.296;6.600;2023-02-11T21:44:45;103934.53;;;5.05;91.51
51986;BME280;38002;53.296;6.600;2023-02-11T21:49:46;103933.44;;;5.11;91.34
51986;BME280;38002;53.296;6.600;2023-02-11T21:54:48;103928.75;;;5.17;91.54
51986;BME280;38002;53.296;6.600;2023-02-11T21:59:49;103933.09;;;5.21;91.36
51986;BME280;38002;53.296;6.600;2023-02-11T22:04:50;103941.97;;;5.25;91.41
51986;BME280;38002;53.296;6.600;2023-02-11T22:09:50;103948.00;;;5.31;91.74
51986;BME280;38002;53.296;6.600;2023-02-11T22:14:53;103951.50;;;5.35;91.80
51986;BME280;38002;53.296;6.600;2023-02-11T22:19:54;103953.09;;;5.40;91.88
51986;BME280;38002;53.296;6.600;2023-02-11T22:24:56;103954.75;;;5.44;91.98
51986;BME280;38002;53.296;6.600;2023-02-11T22:29:59;103958.19;;;5.49;91.65
51986;BME280;38002;53.296;6.600;2023-02-11T22:34:59;103965.22;;;5.54;91.65
51986;BME280;38002;53.296;6.600;2023-02-11T22:40:00;103960.56;;;5.59;91.35
51986;BME280;38002;53.296;6.600;2023-02-11T22:45:00;103966.69;;;5.64;91.68
51986;BME280;38002;53.296;6.600;2023-02-11T22:50:02;103970.19;;;5.66;91.50
51986;BME280;38002;53.296;6.600;2023-02-11T22:55:03;103979.09;;;5.69;91.72
51986;BME280;38002;53.296;6.600;2023-02-11T23:00:06;103977.16;;;5.73;91.49
51986;BME280;38002;53.296;6.600;2023-02-11T23:05:08;103987.88;;;5.74;91.53
51986;BME280;38002;53.296;6.600;2023-02-11T23:10:09;103997.75;;;5.75;91.98
51986;BME280;38002;53.296;6.600;2023-02-11T23:15:10;103997.59;;;5.80;91.36
51986;BME280;38002;53.296;6.600;2023-02-11T23:20:11;103989.38;;;5.83;91.77
51986;BME280;38002;53.296;6.600;2023-02-11T23:25:11;104001.94;;;5.84;91.69
51986;BME280;38002;53.296;6.600;2023-02-11T23:30:12;103992.00;;;5.86;91.63
51986;BME280;38002;53.296;6.600;2023-02-11T23:35:13;103998.22;;;5.88;92.01
51986;BME280;38002;53.296;6.600;2023-02-11T23:40:21;104006.28;;;5.89;91.91
51986;BME280;38002;53.296;6.600;2023-02-11T23:45:21;103999.06;;;5.90;91.78
51986;BME280;38002;53.296;6.600;2023-02-11T23:50:22;103999.88;;;5.92;91.95
51986;BME280;38002;53.296;6.600;2023-02-11T23:55:22;104000.78;;;5.92;91.79
